Time;durP1;ratioP1;P1;durP2;ratioP2;P2;SDS_P1;SDS_P2;PMS_P1;PMS_P2;Temp;Humidity;BMP_temperature;BMP_pressure;BME280_temperature;BME280_humidity;BME280_pressure;Samples;Min_cycle;Max_cycle;Signal;HPM_P1;HPM_P2
2021/12/01 00:00:51;;;;;;;5.05;1.77;;;10.90;96.10;;;;;;5066021;28;20052;-61
2021/12/01 00:03:18;;;;;;;11.50;2.20;;;10.90;96.70;;;;;;5064194;28;20097;-61
2021/12/01 00:05:46;;;;;;;11.88;2.95;;;11.00;96.60;;;;;;5065828;28;20105;-61
2021/12/01 00:08:13;;;;;;;10.10;1.73;;;10.90;96.50;;;;;;5065203;28;20056;-61
2021/12/01 00:10:40;;;;;;;6.97;1.80;;;10.90;96.40;;;;;;5063192;28;20052;-60
2021/12/01 00:13:10;;;;;;;11.05;1.80;;;10.90;96.30;;;;;;5067681;28;20060;-61
2021/12/01 00:15:37;;;;;;;10.35;2.40;;;10.90;96.70;;;;;;5068000;28;20610;-60
2021/12/01 00:18:04;;;;;;;7.68;2.70;;;10.90;96.20;;;;;;5065318;28;20045;-61
2021/12/01 00:20:31;;;;;;;10.32;1.58;;;10.90;96.50;;;;;;5068966;28;20048;-60
2021/12/01 00:22:59;;;;;;;8.45;1.95;;;10.90;96.80;;;;;;5067754;28;20399;-61
2021/12/01 00:25:26;;;;;;;8.13;1.40;;;10.90;97.00;;;;;;5068963;28;20131;-61
2021/12/01 00:27:53;;;;;;;4.25;1.00;;;10.90;97.30;;;;;;5067459;28;20044;-62
2021/12/01 00:30:21;;;;;;;7.10;1.50;;;10.80;96.80;;;;;;5068730;28;20048;-60
2021/12/01 00:32:48;;;;;;;7.03;1.10;;;10.90;96.90;;;;;;5068278;28;20182;-62
2021/12/01 00:35:15;;;;;;;7.00;1.75;;;10.80;97.50;;;;;;5068014;28;20546;-60
2021/12/01 00:37:42;;;;;;;5.90;1.15;;;10.80;97.40;;;;;;5066405;28;20049;-62
2021/12/01 00:40:10;;;;;;;7.43;1.05;;;10.90;97.00;;;;;;5066465;28;20067;-61
2021/12/01 00:42:37;;;;;;;12.00;1.83;;;10.90;96.80;;;;;;5064702;28;20086;-61
2021/12/01 00:45:16;;;;;;;4.63;0.80;;;10.90;96.80;;;;;;5068271;28;20052;-61
2021/12/01 00:47:44;;;;;;;4.43;1.00;;;10.90;97.30;;;;;;5074329;28;20040;-60
2021/12/01 00:50:12;;;;;;;3.63;0.73;;;11.00;97.40;;;;;;5067207;28;20134;-61
2021/12/01 00:52:39;;;;;;;5.63;1.17;;;10.90;97.30;;;;;;5066948;28;20071;-60
2021/12/01 00:55:06;;;;;;;4.30;0.60;;;11.00;97.50;;;;;;5066972;28;20056;-61
2021/12/01 00:57:33;;;;;;;5.63;0.68;;;11.00;97.40;;;;;;5066656;28;20079;-61
2021/12/01 01:00:01;;;;;;;5.18;1.13;;;11.00;97.20;;;;;;5067040;28;20094;-60
2021/12/01 01:02:28;;;;;;;4.47;0.82;;;11.00;97.50;;;;;;5066550;28;20079;-61
2021/12/01 01:04:55;;;;;;;2.30;0.65;;;11.00;97.70;;;;;;5066905;28;20044;-60
2021/12/01 01:07:22;;;;;;;3.17;0.73;;;11.00;97.40;;;;;;5067902;28;20518;-60
2021/12/01 01:09:49;;;;;;;4.40;0.73;;;11.00;97.80;;;;;;5066844;28;20511;-61
2021/12/01 01:17:57;;;;;;;3.60;1.08;;;11.00;97.50;;;;;;5066352;28;20543;-61
2021/12/01 01:20:23;;;;;;;0.70;0.40;;;11.00;97.80;;;;;;5066442;28;20055;-61
2021/12/01 01:22:50;;;;;;;3.03;0.85;;;11.00;97.70;;;;;;5066244;28;20048;-60
2021/12/01 01:25:17;;;;;;;0.85;0.40;;;10.90;98.00;;;;;;5065213;28;20141;-60
2021/12/01 01:27:44;;;;;;;1.02;0.40;;;10.90;97.90;;;;;;5064878;28;20097;-61
2021/12/01 01:30:12;;;;;;;1.73;0.50;;;10.90;97.70;;;;;;5064766;28;20056;-60
2021/12/01 01:32:39;;;;;;;6.32;0.63;;;11.00;97.60;;;;;;5067533;28;20056;-61
2021/12/01 01:35:06;;;;;;;3.10;0.68;;;11.00;97.60;;;;;;5065687;28;20553;-61
2021/12/01 01:37:33;;;;;;;1.88;0.57;;;11.10;97.60;;;;;;5067385;28;20044;-61
2021/12/01 01:40:00;;;;;;;1.38;0.40;;;11.10;97.50;;;;;;5067544;28;20106;-62
2021/12/01 01:42:27;;;;;;;1.15;0.73;;;11.10;97.30;;;;;;5066873;28;20084;-61
2021/12/01 01:44:54;;;;;;;1.20;0.40;;;11.10;97.30;;;;;;5067812;28;20064;-61
2021/12/01 01:47:21;;;;;;;1.20;0.55;;;11.10;97.50;;;;;;5067754;28;20049;-61
2021/12/01 01:52:37;;;;;;;2.22;0.50;;;11.00;97.60;;;;;;5027745;28;20041;-61
2021/12/01 01:55:05;;;;;;;0.75;0.40;;;11.00;97.90;;;;;;5059563;28;20098;-62
2021/12/01 01:57:31;;;;;;;2.13;0.50;;;10.90;98.10;;;;;;5067738;28;20049;-61
2021/12/01 01:59:58;;;;;;;3.00;0.50;;;10.90;98.10;;;;;;5067051;28;20044;-61
2021/12/01 02:02:25;;;;;;;2.00;0.50;;;10.90;98.30;;;;;;5065643;28;20060;-59
2021/12/01 02:04:55;;;;;;;7.18;1.55;;;10.90;98.10;;;;;;5065875;28;20403;-60
2021/12/01 02:07:22;;;;;;;1.38;0.52;;;10.80;98.30;;;;;;5066285;28;20056;-60
2021/12/01 02:09:49;;;;;;;8.05;0.85;;;10.80;98.30;;;;;;5067397;28;20075;-60
2021/12/01 02:12:16;;;;;;;0.50;0.40;;;10.80;97.80;;;;;;5066267;28;20137;-61
2021/12/01 02:14:42;;;;;;;4.25;1.73;;;10.80;97.90;;;;;;5083767;28;20135;-60
2021/12/01 02:17:09;;;;;;;4.38;0.65;;;10.80;97.90;;;;;;5066054;28;20043;-60
2021/12/01 02:19:39;;;;;;;1.20;0.50;;;10.80;97.80;;;;;;5067526;28;20078;-61
2021/12/01 02:22:06;;;;;;;3.03;0.77;;;10.80;97.60;;;;;;5066331;28;20113;-61
2021/12/01 02:24:32;;;;;;;1.90;0.75;;;10.80;97.70;;;;;;5067815;28;20056;-62
2021/12/01 02:26:59;;;;;;;3.15;0.60;;;10.80;97.50;;;;;;5067036;28;20055;-60
2021/12/01 02:29:26;;;;;;;4.30;0.70;;;10.80;97.20;;;;;;5067556;28;20543;-60
2021/12/01 02:31:54;;;;;;;1.15;0.50;;;10.80;97.30;;;;;;5067180;28;20048;-61
2021/12/01 02:34:22;;;;;;;2.13;0.70;;;10.80;97.30;;;;;;5071245;28;20056;-59
2021/12/01 02:36:52;;;;;;;1.17;0.60;;;10.80;97.20;;;;;;5071253;28;20048;-60
2021/12/01 02:39:19;;;;;;;4.03;0.70;;;10.80;97.30;;;;;;5071520;28;20045;-60
2021/12/01 02:41:52;;;;;;;12.02;3.45;;;10.70;97.10;;;;;;5070739;28;20056;-64
2021/12/01 02:44:19;;;;;;;1.80;0.65;;;10.70;97.20;;;;;;5069709;28;20048;-60
2021/12/01 02:46:46;;;;;;;2.03;0.90;;;10.70;97.00;;;;;;5071028;28;20480;-61
2021/12/01 02:49:12;;;;;;;1.85;0.65;;;10.70;96.90;;;;;;5071157;28;20060;-60
2021/12/01 02:51:40;;;;;;;4.75;1.02;;;10.70;96.90;;;;;;5070806;28;20487;-61
2021/12/01 02:54:07;;;;;;;4.60;0.85;;;10.70;96.80;;;;;;5069352;28;20072;-60
2021/12/01 02:56:34;;;;;;;9.52;1.10;;;10.70;96.70;;;;;;5070397;28;20057;-61
2021/12/01 02:59:02;;;;;;;3.75;0.77;;;10.60;96.50;;;;;;5070692;28;20048;-60
2021/12/01 03:01:29;;;;;;;1.33;0.95;;;10.60;96.50;;;;;;5070616;28;20102;-61
2021/12/01 03:03:57;;;;;;;5.70;1.20;;;10.60;96.40;;;;;;5070825;28;20118;-61
2021/12/01 03:06:26;;;;;;;4.10;0.82;;;10.60;96.30;;;;;;5069860;28;20048;-61
2021/12/01 03:08:54;;;;;;;3.58;1.05;;;10.60;96.30;;;;;;5069574;28;20102;-61
2021/12/01 03:11:21;;;;;;;5.50;1.67;;;10.50;96.20;;;;;;5069037;28;20080;-61
2021/12/01 03:13:48;;;;;;;3.80;0.85;;;10.50;96.10;;;;;;5069433;28;20098;-60
2021/12/01 03:16:15;;;;;;;1.75;0.70;;;10.50;96.00;;;;;;5070376;28;20057;-59
2021/12/01 03:18:44;;;;;;;6.38;1.02;;;10.50;95.80;;;;;;5069004;28;20040;-61
2021/12/01 03:21:14;;;;;;;2.47;0.88;;;10.50;95.60;;;;;;5070013;28;20428;-60
2021/12/01 03:23:41;;;;;;;3.45;0.80;;;10.40;95.60;;;;;;5069906;28;20487;-60
2021/12/01 03:26:08;;;;;;;6.97;0.95;;;10.40;95.50;;;;;;5070121;28;20560;-59
2021/12/01 03:28:35;;;;;;;2.97;1.10;;;10.40;95.40;;;;;;5070248;28;20051;-61
2021/12/01 03:31:02;;;;;;;3.85;0.60;;;10.40;95.40;;;;;;5070524;28;20109;-61
2021/12/01 03:33:29;;;;;;;6.30;0.82;;;10.40;95.00;;;;;;5068570;28;20051;-60
2021/12/01 03:35:56;;;;;;;3.92;1.08;;;10.40;95.20;;;;;;5069866;28;20045;-61
2021/12/01 03:38:26;;;;;;;1.55;0.70;;;10.40;95.10;;;;;;5070130;28;20113;-62
2021/12/01 03:40:53;;;;;;;2.85;0.90;;;10.40;95.00;;;;;;5069952;28;20048;-61
2021/12/01 03:43:20;;;;;;;5.15;1.30;;;10.40;95.10;;;;;;5068265;28;20044;-60
2021/12/01 03:45:47;;;;;;;3.92;1.15;;;10.40;94.90;;;;;;5069693;28;20083;-60
2021/12/01 03:48:14;;;;;;;3.25;0.75;;;10.40;94.80;;;;;;5069253;28;20048;-61
2021/12/01 03:50:41;;;;;;;8.05;1.05;;;10.40;94.80;;;;;;5070186;28;20102;-61
2021/12/01 03:53:08;;;;;;;6.38;1.38;;;10.30;95.10;;;;;;5073330;28;20067;-61
2021/12/01 03:55:35;;;;;;;4.53;1.38;;;10.30;95.20;;;;;;5069324;28;20060;-61
2021/12/01 03:58:03;;;;;;;9.18;1.20;;;10.30;95.10;;;;;;5069599;28;20136;-61
2021/12/01 04:00:30;;;;;;;7.38;2.05;;;10.30;95.30;;;;;;5069399;28;20083;-61
2021/12/01 04:02:57;;;;;;;9.57;2.80;;;10.30;95.30;;;;;;5056348;28;20098;-60
2021/12/01 04:05:24;;;;;;;9.75;2.08;;;10.40;95.40;;;;;;5059671;28;20045;-61
2021/12/01 04:07:51;;;;;;;8.07;1.70;;;10.40;95.40;;;;;;5069217;28;20044;-61
2021/12/01 04:10:18;;;;;;;4.57;1.13;;;10.40;95.40;;;;;;5068877;28;20577;-62
2021/12/01 04:12:45;;;;;;;11.48;1.48;;;10.40;95.40;;;;;;5069486;28;20098;-61
2021/12/01 04:15:12;;;;;;;7.82;1.33;;;10.40;95.40;;;;;;5067778;28;20052;-60
2021/12/01 04:17:39;;;;;;;6.93;1.63;;;10.40;95.40;;;;;;5069308;28;20385;-61
2021/12/01 04:20:07;;;;;;;8.15;1.45;;;10.30;95.50;;;;;;5068706;28;20045;-61
2021/12/01 04:22:35;;;;;;;8.25;1.75;;;10.30;95.60;;;;;;5069172;28;20118;-60
2021/12/01 04:25:02;;;;;;;4.63;1.10;;;10.30;95.60;;;;;;5067515;28;20044;-60
2021/12/01 04:27:29;;;;;;;13.00;1.70;;;10.30;95.60;;;;;;5068900;28;20480;-61
2021/12/01 04:29:56;;;;;;;8.32;1.73;;;10.30;95.70;;;;;;5068535;28;20054;-62
2021/12/01 04:32:23;;;;;;;4.43;1.38;;;10.30;95.70;;;;;;5070987;28;20414;-61
2021/12/01 04:34:50;;;;;;;9.02;1.83;;;10.40;95.70;;;;;;5079562;28;20076;-60
2021/12/01 04:37:17;;;;;;;4.10;1.17;;;10.40;95.70;;;;;;5068839;28;20055;-60
2021/12/01 04:39:44;;;;;;;5.88;1.45;;;10.40;95.70;;;;;;5068646;28;20044;-61
2021/12/01 04:42:11;;;;;;;7.55;1.80;;;10.50;95.50;;;;;;5057340;28;20076;-61
2021/12/01 04:44:38;;;;;;;10.35;1.45;;;10.40;95.60;;;;;;5068186;28;20403;-60
2021/12/01 04:47:10;;;;;;;10.60;2.17;;;10.40;95.60;;;;;;5068474;28;20106;-61
2021/12/01 04:49:39;;;;;;;2.60;1.08;;;10.40;95.60;;;;;;5068281;28;20488;-60
2021/12/01 04:52:08;;;;;;;7.78;1.85;;;10.40;95.30;;;;;;5066597;28;20048;-60
2021/12/01 04:54:35;;;;;;;8.07;1.38;;;10.40;95.30;;;;;;5087339;28;20044;-61
2021/12/01 04:57:05;;;;;;;5.32;1.23;;;10.40;95.20;;;;;;5067332;28;20052;-61
2021/12/01 04:59:33;;;;;;;8.93;2.35;;;10.50;95.40;;;;;;5072733;28;20499;-61
2021/12/01 05:02:00;;;;;;;7.22;1.70;;;10.50;95.30;;;;;;5067905;28;20093;-60
2021/12/01 05:04:27;;;;;;;5.13;1.20;;;10.40;95.20;;;;;;5067080;28;20076;-60
2021/12/01 05:06:54;;;;;;;8.68;1.40;;;10.40;95.10;;;;;;5067853;28;20048;-61
2021/12/01 05:09:21;;;;;;;11.70;2.40;;;10.40;95.20;;;;;;5068312;28;20450;-61
2021/12/01 05:11:48;;;;;;;8.30;1.30;;;10.50;95.20;;;;;;5067895;28;20048;-61
2021/12/01 05:14:15;;;;;;;6.75;1.33;;;10.40;94.90;;;;;;5068156;28;20237;-61
2021/12/01 05:16:41;;;;;;;9.52;0.90;;;10.50;95.00;;;;;;5066841;28;20487;-62
2021/12/01 05:19:10;;;;;;;4.65;1.00;;;10.40;94.60;;;;;;5067903;28;20500;-60
2021/12/01 05:21:37;;;;;;;3.10;1.20;;;10.40;94.20;;;;;;5068193;28;20059;-60
2021/12/01 05:24:04;;;;;;;6.05;1.40;;;10.40;94.00;;;;;;5068088;28;20209;-61
2021/12/01 05:26:31;;;;;;;2.15;0.68;;;10.40;93.80;;;;;;5066532;28;20118;-59
2021/12/01 05:28:58;;;;;;;3.92;0.68;;;10.40;93.30;;;;;;5066908;28;20052;-61
2021/12/01 05:31:25;;;;;;;5.38;0.77;;;10.40;92.60;;;;;;5067860;28;20052;-60
2021/12/01 05:33:52;;;;;;;3.55;0.65;;;10.40;93.00;;;;;;5066966;28;20040;-61
2021/12/01 05:36:19;;;;;;;1.40;0.43;;;10.40;92.70;;;;;;5067501;28;20082;-60
2021/12/01 05:38:46;;;;;;;1.55;0.50;;;10.40;93.00;;;;;;5071045;28;20108;-60
2021/12/01 05:41:12;;;;;;;1.77;0.77;;;10.30;92.40;;;;;;5085970;28;20083;-60
2021/12/01 05:43:39;;;;;;;1.15;0.47;;;10.30;92.70;;;;;;5066246;28;20503;-60
2021/12/01 05:46:06;;;;;;;2.50;0.40;;;10.30;92.40;;;;;;5068108;28;20092;-60
2021/12/01 05:48:33;;;;;;;2.53;0.68;;;10.20;91.90;;;;;;5067342;28;20063;-61
2021/12/01 05:51:00;;;;;;;0.68;0.40;;;10.20;91.80;;;;;;5067900;28;20048;-60
2021/12/01 05:53:27;;;;;;;4.00;0.70;;;10.20;91.60;;;;;;5067487;28;20106;-61
2021/12/01 05:55:54;;;;;;;2.33;0.50;;;10.20;91.70;;;;;;5066068;28;20049;-60
2021/12/01 05:58:20;;;;;;;5.47;0.43;;;10.10;91.40;;;;;;5069170;28;20068;-60
2021/12/01 06:00:47;;;;;;;2.97;0.80;;;10.10;91.10;;;;;;5068965;28;20072;-60
2021/12/01 06:03:15;;;;;;;3.08;0.55;;;10.20;91.60;;;;;;5067693;28;20052;-60
2021/12/01 06:05:43;;;;;;;1.50;0.90;;;10.10;91.10;;;;;;5066597;28;20536;-60
2021/12/01 06:08:10;;;;;;;1.52;0.50;;;10.10;91.70;;;;;;5069688;28;20068;-60
2021/12/01 06:10:38;;;;;;;1.73;0.57;;;10.10;91.60;;;;;;5071470;28;20114;-60
2021/12/01 06:13:05;;;;;;;5.00;0.80;;;10.00;90.90;;;;;;5053623;28;20054;-61
2021/12/01 06:15:32;;;;;;;1.83;0.40;;;10.00;91.40;;;;;;5071147;28;20079;-61
2021/12/01 06:18:00;;;;;;;0.50;0.30;;;10.00;91.10;;;;;;5071060;28;20075;-60
2021/12/01 06:20:27;;;;;;;1.75;0.68;;;10.00;90.80;;;;;;5063963;28;20048;-60
2021/12/01 06:22:54;;;;;;;5.28;0.65;;;10.00;91.20;;;;;;5088392;28;20762;-61
2021/12/01 06:25:21;;;;;;;0.68;0.30;;;9.90;90.20;;;;;;5071049;28;20044;-61
2021/12/01 06:27:52;;;;;;;1.55;0.63;;;9.90;90.20;;;;;;5071228;28;20076;-60
2021/12/01 06:30:21;;;;;;;4.63;0.50;;;9.90;90.00;;;;;;5071172;28;20524;-60
2021/12/01 06:32:49;;;;;;;3.95;0.63;;;9.90;90.60;;;;;;5071445;28;20086;-60
2021/12/01 06:35:16;;;;;;;0.63;0.30;;;9.90;90.50;;;;;;5070531;28;20044;-60
2021/12/01 06:37:43;;;;;;;1.55;0.50;;;9.70;92.10;;;;;;5070893;28;20458;-61
2021/12/01 06:40:10;;;;;;;2.25;0.45;;;9.40;93.30;;;;;;5070296;28;20454;-59
2021/12/01 06:42:37;;;;;;;2.92;0.50;;;9.10;93.90;;;;;;5069530;28;20453;-60
2021/12/01 06:45:05;;;;;;;1.55;0.60;;;8.90;94.40;;;;;;5070135;28;20048;-61
2021/12/01 06:47:32;;;;;;;2.00;0.52;;;8.80;94.60;;;;;;5070929;28;20053;-61
2021/12/01 06:49:59;;;;;;;2.22;0.22;;;8.80;94.30;;;;;;5070476;28;20082;-60
2021/12/01 06:52:29;;;;;;;4.80;0.43;;;8.80;93.90;;;;;;5070655;28;20040;-61
2021/12/01 06:54:57;;;;;;;1.65;0.43;;;8.80;94.00;;;;;;5070249;28;20052;-61
2021/12/01 06:57:24;;;;;;;4.53;1.98;;;8.90;94.20;;;;;;5069141;28;20060;-60
2021/12/01 06:59:51;;;;;;;4.20;0.47;;;8.80;94.20;;;;;;5069452;28;20036;-61
2021/12/01 07:02:18;;;;;;;4.00;0.60;;;8.60;94.80;;;;;;5070220;28;20072;-60
2021/12/01 07:04:45;;;;;;;1.75;0.77;;;8.60;94.50;;;;;;5070031;28;20169;-60
2021/12/01 07:07:12;;;;;;;1.88;0.63;;;8.60;94.30;;;;;;5070530;28;20057;-60
2021/12/01 07:09:39;;;;;;;1.42;0.30;;;8.60;94.60;;;;;;5070426;28;20052;-61
2021/12/01 07:12:06;;;;;;;1.27;0.43;;;8.60;93.90;;;;;;5070393;28;20181;-61
2021/12/01 07:14:33;;;;;;;0.63;0.38;;;8.60;93.60;;;;;;5070484;28;20084;-61
2021/12/01 07:17:03;;;;;;;2.03;0.43;;;8.50;93.40;;;;;;5069132;28;20045;-61
2021/12/01 07:19:30;;;;;;;2.33;0.50;;;8.50;93.40;;;;;;5066269;28;20131;-61
2021/12/01 07:21:56;;;;;;;1.65;0.40;;;8.50;93.50;;;;;;5069465;28;20130;-61
2021/12/01 07:24:23;;;;;;;0.55;0.40;;;8.60;93.00;;;;;;5068449;28;20527;-59
2021/12/01 07:26:50;;;;;;;0.50;0.40;;;8.60;93.40;;;;;;5068619;28;20141;-60
2021/12/01 07:29:18;;;;;;;0.20;0.20;;;8.60;92.80;;;;;;5069521;28;20120;-59
2021/12/01 07:31:46;;;;;;;2.22;0.50;;;8.60;93.00;;;;;;5066938;28;20048;-59
2021/12/01 07:34:13;;;;;;;3.40;0.45;;;8.60;92.90;;;;;;5069153;28;20092;-59
2021/12/01 07:36:40;;;;;;;0.90;0.35;;;8.60;93.00;;;;;;5066114;28;20496;-60
2021/12/01 07:39:06;;;;;;;3.97;0.63;;;8.60;92.90;;;;;;5069372;28;20040;-60
2021/12/01 07:41:33;;;;;;;0.40;0.40;;;8.60;92.60;;;;;;5068402;28;20090;-58
2021/12/01 07:44:00;;;;;;;2.28;0.30;;;8.70;92.90;;;;;;5068690;28;20076;-57
2021/12/01 07:46:27;;;;;;;0.80;0.20;;;8.70;92.00;;;;;;5068458;28;20117;-57
2021/12/01 07:48:53;;;;;;;0.85;0.30;;;8.60;91.80;;;;;;5068734;28;20052;-59
2021/12/01 07:51:20;;;;;;;1.55;0.38;;;8.70;92.20;;;;;;5067892;28;20102;-59
2021/12/01 07:53:47;;;;;;;0.80;0.40;;;8.70;92.50;;;;;;5068475;28;20126;-59
2021/12/01 07:56:14;;;;;;;1.30;0.47;;;8.90;92.60;;;;;;5067678;28;20098;-59
2021/12/01 07:58:41;;;;;;;1.05;0.40;;;8.70;92.50;;;;;;5067197;28;20040;-59
2021/12/01 08:01:08;;;;;;;0.55;0.52;;;8.70;91.90;;;;;;5068371;28;20533;-59
2021/12/01 08:03:35;;;;;;;1.73;0.38;;;8.60;92.00;;;;;;5066898;28;20044;-58
2021/12/01 08:06:02;;;;;;;3.10;0.40;;;8.60;92.20;;;;;;5066420;28;20098;-58
2021/12/01 08:08:29;;;;;;;0.38;0.30;;;8.60;92.30;;;;;;5067193;28;20358;-59
2021/12/01 08:10:56;;;;;;;2.58;0.57;;;8.60;92.10;;;;;;5067527;28;20083;-59
2021/12/01 08:13:23;;;;;;;1.98;0.40;;;8.60;92.00;;;;;;5066964;28;20045;-59
2021/12/01 08:15:50;;;;;;;4.00;1.20;;;8.50;91.60;;;;;;5071684;28;20123;-59
2021/12/01 08:18:17;;;;;;;1.52;0.30;;;8.60;92.50;;;;;;5069813;28;20083;-59
2021/12/01 08:20:44;;;;;;;1.05;0.50;;;8.50;92.00;;;;;;4711324;27;10000158;-59
2021/12/01 08:23:11;;;;;;;2.65;0.68;;;8.50;92.50;;;;;;5047719;28;20052;-58
2021/12/01 08:25:38;;;;;;;0.85;0.20;;;8.50;92.50;;;;;;5065103;28;20044;-59
2021/12/01 08:28:06;;;;;;;0.50;0.40;;;8.50;92.70;;;;;;5064528;28;20052;-59
2021/12/01 08:30:32;;;;;;;0.60;0.50;;;8.40;93.00;;;;;;5061619;28;20493;-60
2021/12/01 08:33:00;;;;;;;2.60;0.47;;;8.40;92.70;;;;;;5065905;28;20151;-59
2021/12/01 08:35:27;;;;;;;1.33;0.40;;;8.30;93.10;;;;;;5069997;28;20181;-59
2021/12/01 08:37:55;;;;;;;0.52;0.47;;;8.30;93.40;;;;;;5061441;28;20041;-60
2021/12/01 08:40:22;;;;;;;1.63;0.47;;;8.30;93.60;;;;;;5056837;28;20133;-63
2021/12/01 08:42:49;;;;;;;1.75;0.40;;;8.30;93.80;;;;;;5063598;28;20056;-58
2021/12/01 08:45:16;;;;;;;0.70;0.50;;;8.20;93.90;;;;;;5052562;28;20051;-59
2021/12/01 08:47:42;;;;;;;1.00;0.47;;;8.20;94.20;;;;;;5063400;28;20087;-60
2021/12/01 08:50:10;;;;;;;0.35;0.35;;;8.20;94.50;;;;;;5063704;28;20052;-59
2021/12/01 08:52:37;;;;;;;4.18;0.40;;;8.20;94.50;;;;;;5066991;28;20488;-60
2021/12/01 08:55:04;;;;;;;0.95;0.82;;;8.20;94.90;;;;;;5062223;28;20105;-60
2021/12/01 08:57:31;;;;;;;0.95;0.68;;;8.20;95.00;;;;;;5064001;28;20144;-59
2021/12/01 08:59:58;;;;;;;1.38;0.70;;;8.30;94.80;;;;;;5063470;28;20058;-59
2021/12/01 09:02:25;;;;;;;1.52;0.57;;;8.30;95.00;;;;;;5067500;28;20542;-63
2021/12/01 09:04:52;;;;;;;2.90;1.33;;;8.30;95.10;;;;;;5066623;28;20060;-60
2021/12/01 09:07:19;;;;;;;4.32;1.08;;;8.30;94.90;;;;;;5043382;28;20085;-59
2021/12/01 09:09:46;;;;;;;2.05;0.60;;;8.40;95.70;;;;;;5063195;28;20086;-60
2021/12/01 09:12:15;;;;;;;4.10;0.68;;;8.40;95.40;;;;;;5063250;28;20415;-60
2021/12/01 09:14:43;;;;;;;3.97;1.10;;;8.40;95.60;;;;;;5063187;28;20048;-60
2021/12/01 09:17:12;;;;;;;3.05;0.70;;;8.40;95.20;;;;;;5062813;28;20072;-59
2021/12/01 09:19:40;;;;;;;1.67;0.80;;;8.40;95.80;;;;;;5061988;28;20048;-59
2021/12/01 09:22:06;;;;;;;3.38;1.15;;;8.40;95.60;;;;;;5059260;28;20098;-59
2021/12/01 09:24:33;;;;;;;2.30;0.80;;;8.40;95.40;;;;;;5061844;28;20098;-60
2021/12/01 09:27:00;;;;;;;3.05;0.88;;;8.40;95.40;;;;;;5066761;28;20095;-59
2021/12/01 09:29:27;;;;;;;3.33;0.50;;;8.40;95.50;;;;;;5068765;28;20124;-60
2021/12/01 09:31:55;;;;;;;4.45;2.65;;;8.50;95.20;;;;;;5068699;28;20154;-60
2021/12/01 09:34:22;;;;;;;2.80;1.30;;;8.40;94.80;;;;;;5080270;28;20515;-61
2021/12/01 09:36:49;;;;;;;0.82;0.47;;;8.40;94.80;;;;;;5045865;28;20091;-59
2021/12/01 09:39:16;;;;;;;1.08;0.57;;;8.40;94.40;;;;;;5063969;28;20488;-57
2021/12/01 09:41:43;;;;;;;4.38;0.50;;;8.40;94.90;;;;;;5057387;28;20040;-58
2021/12/01 09:44:10;;;;;;;1.02;0.47;;;8.50;94.20;;;;;;5072416;28;20133;-57
2021/12/01 09:46:37;;;;;;;2.17;0.50;;;8.40;93.80;;;;;;5049620;28;20480;-57
2021/12/01 09:49:04;;;;;;;4.43;0.98;;;8.50;94.10;;;;;;5063131;28;20079;-57
2021/12/01 09:51:31;;;;;;;2.47;0.63;;;8.50;94.30;;;;;;5062699;28;20096;-58
2021/12/01 09:54:00;;;;;;;5.90;0.77;;;8.50;94.20;;;;;;5061087;28;20052;-57
2021/12/01 09:56:27;;;;;;;3.97;1.27;;;8.50;94.00;;;;;;5064648;28;20297;-60
2021/12/01 09:58:54;;;;;;;1.15;0.60;;;8.50;93.70;;;;;;5062541;28;20080;-59
2021/12/01 10:01:22;;;;;;;1.48;0.50;;;8.40;93.80;;;;;;5063054;28;20054;-59
2021/12/01 10:03:50;;;;;;;4.97;0.60;;;8.60;94.10;;;;;;5063526;28;20052;-58
2021/12/01 10:06:21;;;;;;;4.15;0.52;;;8.50;93.90;;;;;;5061468;28;20055;-58
2021/12/01 10:08:52;;;;;;;2.03;0.80;;;8.50;94.00;;;;;;5079594;28;20047;-59
2021/12/01 10:11:27;;;;;;;2.13;0.40;;;8.40;93.90;;;;;;5066224;28;20056;-59
2021/12/01 10:13:55;;;;;;;2.17;0.75;;;8.40;93.80;;;;;;5063730;28;20045;-57
2021/12/01 10:16:22;;;;;;;1.48;0.60;;;8.40;93.80;;;;;;5057886;28;20044;-55
2021/12/01 10:18:51;;;;;;;4.82;1.15;;;8.40;93.70;;;;;;5067042;28;20127;-58
2021/12/01 10:21:29;;;;;;;3.95;0.75;;;8.50;93.90;;;;;;5061346;28;20045;-58
2021/12/01 10:23:58;;;;;;;4.30;0.82;;;8.50;93.80;;;;;;5067839;28;20107;-59
2021/12/01 10:26:26;;;;;;;6.45;0.82;;;8.50;93.50;;;;;;5064128;28;20045;-57
2021/12/01 10:28:57;;;;;;;5.43;0.98;;;8.50;93.10;;;;;;5063652;28;20041;-57
2021/12/01 10:31:35;;;;;;;2.42;0.70;;;8.50;92.90;;;;;;5063945;28;20106;-60
2021/12/01 10:34:16;;;;;;;5.40;1.90;;;8.50;93.00;;;;;;5054719;28;20036;-57
2021/12/01 10:36:44;;;;;;;3.80;0.75;;;8.50;92.90;;;;;;5074707;28;20266;-57
2021/12/01 10:39:11;;;;;;;7.95;1.15;;;8.50;92.80;;;;;;5066296;28;20607;-60
2021/12/01 10:41:40;;;;;;;5.57;0.70;;;8.50;92.80;;;;;;5066093;28;20139;-58
2021/12/01 10:44:17;;;;;;;4.57;0.93;;;8.60;92.50;;;;;;5079424;28;20243;-57
2021/12/01 10:46:52;;;;;;;1.95;0.73;;;8.60;91.70;;;;;;5078345;28;20044;-57
2021/12/01 10:49:37;;;;;;;3.45;1.38;;;8.60;91.80;;;;;;5070079;28;20060;-57
2021/12/01 10:52:04;;;;;;;2.95;0.73;;;8.70;91.50;;;;;;5062411;28;20080;-58
2021/12/01 10:54:31;;;;;;;6.40;0.82;;;8.60;91.60;;;;;;5065250;28;20136;-58
2021/12/01 10:57:23;;;;;;;3.35;0.82;;;8.70;90.90;;;;;;5065444;28;20048;-58
2021/12/01 10:59:50;;;;;;;4.68;2.25;;;8.80;91.30;;;;;;5056906;28;20450;-58
2021/12/01 11:02:22;;;;;;;4.53;1.45;;;8.90;90.80;;;;;;5067817;28;20546;-59
2021/12/01 11:04:50;;;;;;;4.43;0.80;;;8.90;90.90;;;;;;5065561;28;20128;-60
2021/12/01 11:07:32;;;;;;;3.03;1.17;;;9.00;90.80;;;;;;5077679;28;20055;-59
2021/12/01 11:10:18;;;;;;;1.40;0.77;;;9.00;90.10;;;;;;5066345;28;20048;-58
2021/12/01 11:13:03;;;;;;;3.03;1.00;;;9.10;90.50;;;;;;5067062;28;20044;-58
2021/12/01 11:15:40;;;;;;;8.15;1.25;;;9.20;90.40;;;;;;5057815;28;20083;-58
2021/12/01 11:18:30;;;;;;;8.23;2.35;;;9.30;90.50;;;;;;5065929;28;20443;-59
2021/12/01 11:21:12;;;;;;;5.05;1.48;;;9.30;90.00;;;;;;5065690;28;20094;-58
2021/12/01 11:23:49;;;;;;;;;;;9.30;90.00;;;;;;5066749;28;20487;-58
2021/12/01 11:26:19;;;;;;;6.32;1.05;;;9.30;88.90;;;;;;5065214;28;20284;-58
2021/12/01 11:28:46;;;;;;;10.38;1.45;;;9.30;89.10;;;;;;5066409;28;20094;-58
2021/12/01 11:31:29;;;;;;;7.57;1.55;;;9.30;89.60;;;;;;5066601;28;20090;-57
2021/12/01 11:33:59;;;;;;;12.00;2.17;;;9.30;87.60;;;;;;5064700;28;20057;-57
2021/12/01 11:36:27;;;;;;;9.57;1.13;;;9.30;87.50;;;;;;5066718;28;20504;-57
2021/12/01 11:38:56;;;;;;;6.95;1.25;;;9.20;86.50;;;;;;5066470;28;20080;-57
2021/12/01 11:41:23;;;;;;;7.65;1.48;;;9.30;86.90;;;;;;5066788;28;20110;-58
2021/12/01 11:43:55;;;;;;;13.65;1.63;;;9.20;84.60;;;;;;5065699;28;20048;-58
2021/12/01 11:46:22;;;;;;;5.18;1.30;;;9.30;85.50;;;;;;5066710;28;20137;-59
2021/12/01 11:48:50;;;;;;;8.10;1.50;;;9.30;86.50;;;;;;5066471;28;20052;-57
2021/12/01 11:51:29;;;;;;;6.72;1.70;;;9.30;86.80;;;;;;5064678;28;20078;-57
2021/12/01 11:54:19;;;;;;;13.63;1.88;;;9.40;86.70;;;;;;5064500;28;20076;-57
2021/12/01 11:57:05;;;;;;;8.95;1.25;;;9.50;84.30;;;;;;5056070;28;20561;-56
2021/12/01 11:59:45;;;;;;;8.73;2.15;;;9.40;85.00;;;;;;5064960;28;20055;-58
2021/12/01 12:02:18;;;;;;;9.63;1.30;;;9.50;86.60;;;;;;5066034;28;20466;-57
2021/12/01 12:04:49;;;;;;;6.30;1.58;;;9.60;84.40;;;;;;5064326;28;20068;-57
2021/12/01 12:07:25;;;;;;;9.05;1.55;;;9.60;84.10;;;;;;5065036;28;20130;-58
2021/12/01 12:10:18;;;;;;;10.95;1.70;;;9.60;85.10;;;;;;5064323;28;20051;-57
2021/12/01 12:13:00;;;;;;;10.65;2.47;;;9.70;84.70;;;;;;5063495;28;20519;-57
2021/12/01 12:15:54;;;;;;;9.80;1.83;;;9.70;84.30;;;;;;5062965;28;20044;-56
2021/12/01 12:18:38;;;;;;;11.93;1.50;;;9.60;81.60;;;;;;5062735;28;20114;-57
2021/12/01 12:21:13;;;;;;;11.35;2.53;;;9.60;82.90;;;;;;5062300;28;20349;-57
2021/12/01 12:23:40;;;;;;;6.97;1.30;;;9.60;84.60;;;;;;5062014;28;20048;-63
2021/12/01 12:26:10;;;;;;;8.85;1.60;;;9.50;84.80;;;;;;5063739;28;20048;-58
2021/12/01 12:28:37;;;;;;;8.00;1.55;;;9.60;85.80;;;;;;5066075;28;20295;-57
2021/12/01 12:31:20;;;;;;;9.13;1.30;;;9.60;83.10;;;;;;5065182;28;20060;-59
2021/12/01 12:33:59;;;;;;;6.22;1.73;;;9.60;82.70;;;;;;5062069;28;20100;-58
2021/12/01 12:36:40;;;;;;;12.70;1.85;;;9.50;82.40;;;;;;5065446;28;20044;-58
2021/12/01 12:39:10;;;;;;;11.23;1.45;;;9.50;83.10;;;;;;5065701;28;20131;-58
2021/12/01 12:41:57;;;;;;;13.70;2.40;;;9.50;83.30;;;;;;5065415;28;20084;-58
2021/12/01 12:44:57;;;;;;;6.07;1.45;;;9.50;83.30;;;;;;5065261;28;20048;-58
2021/12/01 12:47:26;;;;;;;10.05;1.73;;;9.50;84.00;;;;;;5021223;28;20294;-58
2021/12/01 12:49:55;;;;;;;9.98;1.38;;;9.50;83.90;;;;;;5066024;28;20117;-58
2021/12/01 12:52:25;;;;;;;7.82;1.80;;;9.50;83.60;;;;;;5067308;28;20468;-58
2021/12/01 12:54:56;;;;;;;7.88;1.35;;;9.50;82.90;;;;;;5068445;28;20106;-58
2021/12/01 12:57:23;;;;;;;6.80;1.23;;;9.50;82.10;;;;;;5068154;28;20091;-58
2021/12/01 13:00:38;;;;;;;11.82;1.58;;;9.50;83.30;;;;;;5068632;28;20131;-58
2021/12/01 13:03:23;;;;;;;7.63;2.03;;;9.60;81.40;;;;;;4986041;28;20553;-57
2021/12/01 13:06:02;;;;;;;8.02;1.60;;;9.60;80.60;;;;;;4970502;28;20043;-57
2021/12/01 13:08:37;;;;;;;10.77;2.38;;;9.80;82.90;;;;;;5025553;28;20416;-57